Time;durP1;ratioP1;P1;durP2;ratioP2;P2;SDS_P1;SDS_P2;PMS_P1;PMS_P2;Temp;Humidity;BMP_temperature;BMP_pressure;BME280_temperature;BME280_humidity;BME280_pressure;Samples;Min_cycle;Max_cycle;Signal;HPM_P1;HPM_P2
2022/01/27 00:03:06;;;;;;;49.63;27.50;;;2.80;98.20;;;;;;6243771;28;20479;-65
2022/01/27 00:06:13;;;;;;;38.17;26.27;;;2.70;98.20;;;;;;6250328;28;20951;-65
2022/01/27 00:09:23;;;;;;;41.30;28.27;;;2.70;98.20;;;;;;6250669;28;20964;-64
2022/01/27 00:12:27;;;;;;;36.70;25.87;;;2.70;98.20;;;;;;6259881;28;20571;-65
2022/01/27 00:15:33;;;;;;;37.87;26.20;;;2.70;98.20;;;;;;6265257;28;20470;-65
2022/01/27 00:18:36;;;;;;;38.93;26.43;;;2.70;98.20;;;;;;6250318;28;20963;-66
2022/01/27 00:21:40;;;;;;;38.77;26.70;;;2.70;98.30;;;;;;6249960;28;20976;-65
2022/01/27 00:24:43;;;;;;;37.33;26.13;;;2.70;98.40;;;;;;6250390;28;20482;-64
2022/01/27 00:27:47;;;;;;;38.67;28.20;;;2.70;98.20;;;;;;6250758;28;20479;-64
2022/01/27 00:30:50;;;;;;;41.50;29.70;;;2.60;98.10;;;;;;6249811;28;20475;-66
2022/01/27 00:33:55;;;;;;;42.10;27.30;;;2.60;98.30;;;;;;6250187;28;20850;-66
2022/01/27 00:36:59;;;;;;;41.87;27.07;;;2.70;98.40;;;;;;6250482;28;20485;-66
2022/01/27 00:40:02;;;;;;;48.33;29.00;;;2.60;98.10;;;;;;6249993;28;20964;-66
2022/01/27 00:43:06;;;;;;;42.77;27.70;;;2.40;98.50;;;;;;6250165;28;20463;-67
2022/01/27 00:46:13;;;;;;;46.50;27.37;;;2.50;98.70;;;;;;6249924;28;20532;-64
2022/01/27 00:49:16;;;;;;;42.27;28.40;;;2.50;98.60;;;;;;6250141;28;20470;-64
2022/01/27 00:52:28;;;;;;;40.70;27.87;;;2.50;98.80;;;;;;6249934;28;20486;-64
2022/01/27 00:55:36;;;;;;;42.27;28.13;;;2.50;98.70;;;;;;6250313;28;20767;-65
2022/01/27 00:58:49;;;;;;;47.00;28.50;;;2.60;98.80;;;;;;6250741;28;20486;-65
2022/01/27 01:02:00;;;;;;;40.50;28.80;;;2.60;98.70;;;;;;6245300;28;20483;-65
2022/01/27 01:05:16;;;;;;;39.40;26.53;;;2.60;98.60;;;;;;6249886;28;20479;-65
2022/01/27 01:12:27;;;;;;;40.20;27.30;;;2.70;98.70;;;;;;6242591;28;20482;-68
2022/01/27 01:15:18;;;;;;;44.47;29.17;;;2.60;98.80;;;;;;6248580;28;20940;-67
2022/01/27 01:18:36;;;;;;;47.07;28.60;;;2.60;98.60;;;;;;6249237;28;20475;-67
2022/01/27 01:21:56;;;;;;;37.30;24.93;;;2.60;98.60;;;;;;6249366;28;20475;-68
2022/01/27 01:32:06;;;;;;;37.33;27.17;;;2.60;98.70;;;;;;6252677;28;20536;-68
2022/01/27 01:35:10;;;;;;;38.93;26.10;;;2.50;99.20;;;;;;6260570;28;20468;-66
2022/01/27 01:38:14;;;;;;;41.23;27.30;;;2.50;99.10;;;;;;6262687;28;20488;-66
2022/01/27 01:41:19;;;;;;;45.13;27.70;;;2.50;99.50;;;;;;6262057;28;20475;-67
2022/01/27 01:44:23;;;;;;;48.90;29.00;;;2.60;99.20;;;;;;6265485;28;20466;-66
2022/01/27 01:47:26;;;;;;;46.93;28.67;;;2.60;98.90;;;;;;6267585;28;20474;-66
2022/01/27 01:50:29;;;;;;;43.80;27.93;;;2.70;98.90;;;;;;6273732;28;20978;-66
2022/01/27 01:53:33;;;;;;;46.93;28.50;;;2.70;98.90;;;;;;6279106;28;20831;-66
2022/01/27 01:56:39;;;;;;;42.03;29.07;;;2.70;98.80;;;;;;6278818;28;20462;-66
2022/01/27 01:59:43;;;;;;;41.77;26.90;;;2.70;98.70;;;;;;6278778;28;20481;-64
2022/01/27 02:02:46;;;;;;;44.43;28.23;;;2.70;98.80;;;;;;6278669;28;20822;-64
2022/01/27 02:05:55;;;;;;;47.53;30.10;;;2.70;98.60;;;;;;6269128;28;20535;-64
2022/01/27 02:09:19;;;;;;;43.43;28.10;;;2.70;98.50;;;;;;6278403;28;20473;-64
2022/01/27 02:19:04;;;;;;;41.20;28.87;;;2.60;98.40;;;;;;6278052;28;20481;-66
2022/01/27 02:22:09;;;;;;;41.27;27.70;;;2.50;98.50;;;;;;6278416;28;20479;-66
2022/01/27 02:25:12;;;;;;;44.43;29.27;;;2.40;98.70;;;;;;6278344;28;20507;-66
2022/01/27 02:28:15;;;;;;;48.87;29.80;;;2.30;98.80;;;;;;6278504;28;20811;-66
2022/01/27 02:31:18;;;;;;;46.80;29.47;;;2.40;99.10;;;;;;6278062;28;20990;-66
2022/01/27 02:34:23;;;;;;;54.40;29.80;;;2.30;99.20;;;;;;6277525;28;20474;-67
2022/01/27 02:37:27;;;;;;;46.33;28.27;;;2.40;99.20;;;;;;6278363;28;20477;-66
2022/01/27 02:40:35;;;;;;;47.17;28.50;;;2.30;99.10;;;;;;6277812;28;20966;-66
2022/01/27 02:43:38;;;;;;;43.23;28.00;;;2.40;99.20;;;;;;6277979;28;20461;-69
2022/01/27 02:46:46;;;;;;;42.77;30.07;;;2.30;99.10;;;;;;6277922;28;20478;-69
2022/01/27 02:49:50;;;;;;;43.77;27.47;;;2.30;99.10;;;;;;6277371;28;20532;-68
2022/01/27 02:52:54;;;;;;;46.73;30.17;;;2.10;99.40;;;;;;6277286;28;20484;-69
2022/01/27 02:55:58;;;;;;;40.10;26.07;;;2.10;99.60;;;;;;6277505;28;20462;-69
2022/01/27 02:59:01;;;;;;;44.00;29.90;;;2.10;99.60;;;;;;6277424;28;20955;-65
2022/01/27 03:02:05;;;;;;;42.93;28.23;;;2.10;99.60;;;;;;6277216;28;20527;-64
2022/01/27 03:05:08;;;;;;;46.23;28.97;;;2.10;99.60;;;;;;6277056;28;20478;-64
2022/01/27 03:08:13;;;;;;;42.53;29.47;;;2.00;99.60;;;;;;6267798;28;20466;-64
2022/01/27 03:11:18;;;;;;;46.77;27.00;;;2.00;99.60;;;;;;6277044;28;20489;-66
2022/01/27 03:14:23;;;;;;;42.73;27.93;;;2.00;99.80;;;;;;6280674;28;20482;-66
2022/01/27 03:17:26;;;;;;;46.70;27.63;;;2.00;99.90;;;;;;6284732;28;20477;-67
2022/01/27 03:20:32;;;;;;;42.90;28.20;;;2.10;99.90;;;;;;6282824;28;20543;-66
2022/01/27 03:23:37;;;;;;;41.97;25.10;;;2.00;99.90;;;;;;6279130;28;20474;-67
2022/01/27 03:26:41;;;;;;;42.50;28.07;;;2.00;99.70;;;;;;6278512;28;20485;-67
2022/01/27 03:29:45;;;;;;;46.50;27.03;;;2.00;99.80;;;;;;6278887;28;20955;-64
2022/01/27 03:32:48;;;;;;;39.30;26.33;;;2.00;99.80;;;;;;6278748;28;20470;-64
2022/01/27 03:35:51;;;;;;;42.77;27.60;;;2.00;99.90;;;;;;6276256;28;20465;-64
2022/01/27 03:38:55;;;;;;;42.80;27.17;;;2.00;99.90;;;;;;6276705;28;20484;-64
2022/01/27 03:42:00;;;;;;;42.57;29.13;;;2.00;99.90;;;;;;6276515;28;20856;-64
2022/01/27 03:45:04;;;;;;;45.97;27.17;;;2.00;99.80;;;;;;6276481;28;20466;-66
2022/01/27 03:48:07;;;;;;;44.93;29.30;;;1.90;99.90;;;;;;6276054;28;20959;-67
2022/01/27 03:51:10;;;;;;;50.57;27.97;;;1.90;99.90;;;;;;6276188;28;20466;-66
2022/01/27 03:54:15;;;;;;;44.37;27.73;;;1.80;99.90;;;;;;6276540;28;20458;-67
2022/01/27 03:57:18;;;;;;;39.83;27.40;;;1.80;99.90;;;;;;6276111;28;20466;-67
2022/01/27 04:00:23;;;;;;;43.90;27.80;;;1.80;99.90;;;;;;6276046;28;20489;-66
2022/01/27 04:03:28;;;;;;;48.73;29.47;;;1.80;99.90;;;;;;6277849;28;20466;-66
2022/01/27 04:06:36;;;;;;;42.70;27.10;;;1.70;99.90;;;;;;6275704;28;20971;-66
2022/01/27 04:09:40;;;;;;;43.33;28.93;;;1.70;99.90;;;;;;6271305;28;20471;-66
2022/01/27 04:12:43;;;;;;;44.17;28.00;;;1.60;99.90;;;;;;6275630;28;20847;-66
2022/01/27 04:15:46;;;;;;;52.53;31.33;;;1.60;99.90;;;;;;6275657;28;20997;-66
2022/01/27 04:18:50;;;;;;;49.10;29.33;;;1.70;99.90;;;;;;6275848;28;20477;-66
2022/01/27 04:21:53;;;;;;;46.70;29.07;;;1.70;99.90;;;;;;6275776;28;20493;-66
2022/01/27 04:24:57;;;;;;;46.20;30.20;;;1.70;99.90;;;;;;6275228;28;20470;-66
2022/01/27 04:28:05;;;;;;;40.50;27.57;;;1.70;99.90;;;;;;6275249;28;20480;-66
2022/01/27 04:31:10;;;;;;;44.67;28.90;;;1.70;99.90;;;;;;6275072;28;20539;-66
2022/01/27 04:34:13;;;;;;;46.77;29.20;;;1.70;99.90;;;;;;6275894;28;20463;-67
2022/01/27 04:37:20;;;;;;;47.60;27.87;;;1.70;99.90;;;;;;6275250;28;20474;-66
2022/01/27 04:40:32;;;;;;;43.47;28.93;;;1.80;99.90;;;;;;6275022;28;20470;-66
2022/01/27 04:43:41;;;;;;;42.40;29.00;;;1.80;99.90;;;;;;6274981;28;20478;-66
2022/01/27 04:46:50;;;;;;;45.17;28.27;;;1.80;99.90;;;;;;6275539;28;20485;-64
2022/01/27 04:49:53;;;;;;;44.20;27.17;;;1.80;99.90;;;;;;6274824;28;20501;-64
2022/01/27 04:52:58;;;;;;;44.13;28.13;;;1.80;99.90;;;;;;6274840;28;20473;-66
2022/01/27 04:56:03;;;;;;;42.50;27.87;;;1.80;99.90;;;;;;6274878;28;20750;-66
2022/01/27 04:59:12;;;;;;;41.03;26.07;;;1.80;99.90;;;;;;6275658;28;20474;-67
2022/01/27 05:02:22;;;;;;;45.20;26.17;;;1.80;99.90;;;;;;6275955;28;20496;-66
2022/01/27 05:05:26;;;;;;;43.13;27.17;;;1.80;99.90;;;;;;6274759;28;20615;-66
2022/01/27 05:08:30;;;;;;;40.67;26.07;;;1.80;99.90;;;;;;6274953;28;20481;-68
2022/01/27 05:11:37;;;;;;;50.17;31.27;;;1.80;99.90;;;;;;6274802;28;20504;-68
2022/01/27 05:14:40;;;;;;;46.13;29.23;;;1.80;99.90;;;;;;6274359;28;20975;-69
2022/01/27 05:17:43;;;;;;;42.97;28.90;;;1.80;99.90;;;;;;6279531;28;20622;-69
2022/01/27 05:20:46;;;;;;;45.13;27.60;;;1.80;99.90;;;;;;6279436;28;20816;-64
2022/01/27 05:23:50;;;;;;;45.67;30.37;;;1.80;99.90;;;;;;6279751;28;20474;-64
2022/01/27 05:26:54;;;;;;;45.33;30.20;;;1.80;99.90;;;;;;6279501;28;20482;-68
2022/01/27 05:29:57;;;;;;;46.07;29.67;;;1.70;99.90;;;;;;6279710;28;20461;-67
2022/01/27 05:33:01;;;;;;;48.80;29.67;;;1.70;99.90;;;;;;6279713;28;20457;-68
2022/01/27 05:36:04;;;;;;;55.23;33.80;;;1.70;99.90;;;;;;6279495;28;20579;-68
2022/01/27 05:39:07;;;;;;;50.07;30.27;;;1.70;99.90;;;;;;6279474;28;20450;-66
2022/01/27 05:42:12;;;;;;;47.37;30.07;;;1.60;99.90;;;;;;6279327;28;20449;-65
2022/01/27 05:45:15;;;;;;;46.13;29.30;;;1.60;99.90;;;;;;6279310;28;20465;-65
2022/01/27 05:48:18;;;;;;;47.30;28.70;;;1.60;99.90;;;;;;6279582;28;20474;-65
2022/01/27 05:51:21;;;;;;;45.97;28.53;;;1.60;99.90;;;;;;6279285;28;20481;-67
2022/01/27 05:54:24;;;;;;;43.80;28.33;;;1.60;99.90;;;;;;6279352;28;20477;-68
2022/01/27 05:57:29;;;;;;;45.60;28.03;;;1.60;99.90;;;;;;6278890;28;20462;-65
2022/01/27 06:00:32;;;;;;;44.03;27.77;;;1.60;99.90;;;;;;6278857;28;20557;-65
2022/01/27 06:03:36;;;;;;;44.00;28.53;;;1.50;99.90;;;;;;6279150;28;20477;-65
2022/01/27 06:06:39;;;;;;;48.30;30.30;;;1.50;99.90;;;;;;6278744;28;20466;-65
2022/01/27 06:09:42;;;;;;;42.70;28.67;;;1.40;99.90;;;;;;6278638;28;20470;-65
2022/01/27 06:12:51;;;;;;;45.87;29.00;;;1.30;99.90;;;;;;6278645;28;20780;-65
2022/01/27 06:15:55;;;;;;;49.43;31.40;;;1.30;99.90;;;;;;6278131;28;20813;-65
2022/01/27 06:18:59;;;;;;;43.77;28.33;;;1.30;99.90;;;;;;6269383;28;20480;-65
2022/01/27 06:22:03;;;;;;;43.27;26.37;;;1.30;99.90;;;;;;6278022;28;20465;-68
2022/01/27 06:25:08;;;;;;;44.30;29.17;;;1.30;99.90;;;;;;6278527;28;20474;-68
2022/01/27 06:28:12;;;;;;;46.13;28.63;;;1.30;99.90;;;;;;6277683;28;20470;-68
2022/01/27 06:31:15;;;;;;;50.23;30.10;;;1.30;99.90;;;;;;6277840;28;20959;-68
2022/01/27 06:34:19;;;;;;;44.80;29.43;;;1.40;99.90;;;;;;6277874;28;20470;-68
2022/01/27 06:37:22;;;;;;;48.57;29.10;;;1.40;99.90;;;;;;6278224;28;20474;-68
2022/01/27 06:40:25;;;;;;;48.10;29.43;;;1.40;99.90;;;;;;6277358;28;20959;-68
2022/01/27 06:43:29;;;;;;;44.83;29.07;;;1.40;99.90;;;;;;6277858;28;20462;-68
2022/01/27 06:46:35;;;;;;;42.80;27.87;;;1.50;99.90;;;;;;6277294;28;20474;-68
2022/01/27 06:49:38;;;;;;;49.63;29.50;;;1.50;99.90;;;;;;6277299;28;20963;-67
2022/01/27 06:52:42;;;;;;;45.60;30.67;;;1.60;99.90;;;;;;6280618;28;20478;-66
2022/01/27 06:55:45;;;;;;;44.97;28.27;;;1.60;99.90;;;;;;6277650;28;20466;-65
2022/01/27 06:58:50;;;;;;;51.73;28.83;;;1.70;99.90;;;;;;6277331;28;20470;-65
2022/01/27 07:01:53;;;;;;;49.13;31.37;;;1.70;99.80;;;;;;6277196;28;20474;-65
2022/01/27 07:04:57;;;;;;;47.90;31.93;;;1.70;99.70;;;;;;6277451;28;20568;-66
2022/01/27 07:08:00;;;;;;;46.97;29.97;;;1.70;99.60;;;;;;6277276;28;20608;-66
2022/01/27 07:11:03;;;;;;;48.03;30.00;;;1.70;99.40;;;;;;6277247;28;20493;-64
2022/01/27 07:14:08;;;;;;;49.67;29.80;;;1.70;99.40;;;;;;6278028;28;20484;-64
2022/01/27 07:17:13;;;;;;;45.80;29.27;;;1.80;99.30;;;;;;6279507;28;20466;-64
2022/01/27 07:20:17;;;;;;;45.33;31.50;;;1.80;99.30;;;;;;6276450;28;20549;-66
2022/01/27 07:23:21;;;;;;;52.37;29.97;;;1.80;99.00;;;;;;6272424;28;20497;-67
2022/01/27 07:26:26;;;;;;;47.43;30.67;;;1.90;98.90;;;;;;6277101;28;20485;-66
2022/01/27 07:29:30;;;;;;;51.87;29.53;;;1.90;98.90;;;;;;6276539;28;20585;-64
2022/01/27 07:32:33;;;;;;;48.20;32.30;;;1.90;98.70;;;;;;6276209;28;20481;-64
2022/01/27 07:35:37;;;;;;;46.30;29.03;;;2.00;98.90;;;;;;6276642;28;20990;-64
2022/01/27 07:38:40;;;;;;;44.73;30.30;;;2.10;99.00;;;;;;6275210;28;20474;-66
2022/01/27 07:41:44;;;;;;;46.60;31.60;;;2.20;98.90;;;;;;6275673;28;20482;-68
2022/01/27 07:44:49;;;;;;;41.77;28.80;;;2.30;98.90;;;;;;6276097;28;20545;-69
2022/01/27 07:47:52;;;;;;;44.03;28.90;;;2.60;98.70;;;;;;6275905;28;20486;-67
2022/01/27 07:50:55;;;;;;;47.73;29.83;;;2.60;98.10;;;;;;6276031;28;20462;-64
2022/01/27 07:53:58;;;;;;;42.10;29.17;;;2.80;98.10;;;;;;6276196;28;20451;-64
2022/01/27 07:57:07;;;;;;;47.20;31.40;;;3.00;98.00;;;;;;6276200;28;20521;-68
2022/01/27 08:00:14;;;;;;;52.30;30.30;;;3.20;97.40;;;;;;6263000;28;20838;-65
2022/01/27 08:03:17;;;;;;;46.13;28.67;;;3.40;96.70;;;;;;6262071;28;20548;-65
2022/01/27 08:06:21;;;;;;;45.93;27.70;;;3.70;96.50;;;;;;6268127;28;21135;-64
2022/01/27 08:09:24;;;;;;;43.20;29.53;;;3.80;96.00;;;;;;6258565;28;20568;-68
2022/01/27 08:12:27;;;;;;;47.17;28.43;;;3.90;95.90;;;;;;6249929;28;20470;-68
2022/01/27 08:15:32;;;;;;;47.47;28.97;;;4.10;95.80;;;;;;6250330;28;20971;-65
2022/01/27 08:18:36;;;;;;;49.77;28.20;;;4.20;95.60;;;;;;6266421;28;20481;-66
2022/01/27 08:21:39;;;;;;;48.13;29.37;;;4.40;94.90;;;;;;6272087;28;20487;-68
2022/01/27 08:24:42;;;;;;;47.93;28.97;;;4.50;94.70;;;;;;6254369;28;21003;-68
2022/01/27 08:27:47;;;;;;;45.50;30.50;;;4.60;94.70;;;;;;6260933;28;20901;-67
2022/01/27 08:30:54;;;;;;;48.00;32.37;;;4.80;94.60;;;;;;6260335;28;20466;-68
2022/01/27 08:34:03;;;;;;;41.67;28.50;;;4.80;94.20;;;;;;6265228;28;20964;-67
2022/01/27 08:37:11;;;;;;;46.70;31.20;;;4.90;94.00;;;;;;6264990;28;20487;-67
2022/01/27 08:40:15;;;;;;;45.90;31.50;;;5.00;94.00;;;;;;6256508;28;21019;-67
2022/01/27 08:43:38;;;;;;;53.43;32.30;;;5.00;93.70;;;;;;6258229;28;20463;-68
2022/01/27 08:46:43;;;;;;;46.97;28.97;;;5.10;93.70;;;;;;6272375;28;20463;-67
2022/01/27 08:49:47;;;;;;;45.83;30.17;;;5.10;93.50;;;;;;6255597;28;20495;-67
2022/01/27 08:52:50;;;;;;;50.90;31.73;;;5.10;93.10;;;;;;6269754;28;20478;-67
2022/01/27 08:55:54;;;;;;;49.83;30.37;;;5.20;93.50;;;;;;6269820;28;20470;-70
2022/01/27 08:58:58;;;;;;;48.87;30.97;;;5.30;93.30;;;;;;6275038;28;20474;-69
2022/01/27 09:02:03;;;;;;;45.70;30.63;;;5.40;93.10;;;;;;6275041;28;20500;-69
2022/01/27 09:05:06;;;;;;;43.30;30.70;;;5.60;92.60;;;;;;6274799;28;21001;-69
2022/01/27 09:08:10;;;;;;;44.17;30.27;;;5.80;92.50;;;;;;6275706;28;20474;-68
2022/01/27 09:11:13;;;;;;;50.27;30.40;;;5.90;92.10;;;;;;6263257;28;20473;-69
2022/01/27 09:14:16;;;;;;;44.13;30.30;;;5.80;91.70;;;;;;6260270;28;20474;-69
2022/01/27 09:17:26;;;;;;;48.53;32.73;;;5.70;91.90;;;;;;6282232;28;20474;-69
2022/01/27 09:20:29;;;;;;;38.53;27.40;;;5.60;92.40;;;;;;6292354;28;20470;-66
2022/01/27 09:23:33;;;;;;;48.43;31.37;;;5.70;92.20;;;;;;6299457;28;20469;-65
2022/01/27 09:26:42;;;;;;;50.13;30.27;;;5.80;91.90;;;;;;6299192;28;20559;-66
2022/01/27 09:29:47;;;;;;;44.83;30.00;;;5.60;92.10;;;;;;6300957;28;20493;-66
2022/01/27 09:32:52;;;;;;;44.10;30.43;;;5.60;92.40;;;;;;6299424;28;20481;-66
2022/01/27 09:35:55;;;;;;;48.70;31.17;;;5.80;92.10;;;;;;6299251;28;20469;-66
2022/01/27 09:38:58;;;;;;;43.30;30.53;;;5.90;91.80;;;;;;6299871;28;20918;-67
2022/01/27 09:42:03;;;;;;;46.03;32.40;;;5.90;91.60;;;;;;6301166;28;20452;-66
2022/01/27 09:45:09;;;;;;;49.23;32.57;;;5.90;91.40;;;;;;6300088;28;20456;-67
2022/01/27 09:48:15;;;;;;;48.90;31.37;;;5.90;91.60;;;;;;6299609;28;20790;-66
2022/01/27 09:51:39;;;;;;;46.07;31.30;;;6.20;91.40;;;;;;6301978;28;20603;-67
2022/01/27 09:54:44;;;;;;;51.67;32.47;;;6.30;91.10;;;;;;6300496;28;20539;-65
2022/01/27 09:57:52;;;;;;;51.10;31.63;;;6.40;91.00;;;;;;6300537;28;20484;-70
2022/01/27 10:00:55;;;;;;;40.00;29.60;;;6.90;90.80;;;;;;6299703;28;20473;-65
2022/01/27 10:04:02;;;;;;;43.67;31.47;;;7.30;90.00;;;;;;6302451;28;20472;-66
2022/01/27 10:07:05;;;;;;;45.77;30.40;;;7.60;88.70;;;;;;6304075;28;20551;-66
2022/01/27 10:10:12;;;;;;;39.50;30.60;;;8.10;86.70;;;;;;6304110;28;20965;-64
2022/01/27 10:13:30;;;;;;;40.80;29.03;;;8.40;85.20;;;;;;6305628;28;20469;-66
2022/01/27 10:16:35;;;;;;;43.70;32.10;;;8.60;83.60;;;;;;6303328;28;20806;-67
2022/01/27 10:19:41;;;;;;;39.13;29.33;;;9.30;81.20;;;;;;6304000;28;20465;-68
2022/01/27 10:23:01;;;;;;;39.30;29.67;;;10.30;77.50;;;;;;6304787;28;20488;-68
2022/01/27 10:26:14;;;;;;;36.17;29.00;;;12.20;72.60;;;;;;6310129;28;20801;-67
2022/01/27 10:29:30;;;;;;;34.20;28.50;;;14.10;62.20;;;;;;6308603;28;20473;-68
2022/01/27 10:32:42;;;;;;;37.83;27.80;;;16.30;55.10;;;;;;6302041;28;20473;-66
2022/01/27 10:35:46;;;;;;;33.70;27.87;;;17.30;48.40;;;;;;6293461;28;20477;-69
2022/01/27 10:38:55;;;;;;;34.47;28.73;;;18.00;45.70;;;;;;6302006;28;20483;-68
2022/01/27 10:42:05;;;;;;;36.93;31.53;;;17.00;45.00;;;;;;6302568;28;20488;-66
2022/01/27 10:45:14;;;;;;;44.40;32.33;;;16.60;45.50;;;;;;6303768;28;20786;-66
2022/01/27 10:48:22;;;;;;;35.20;29.10;;;16.00;45.30;;;;;;6290301;28;20515;-66
2022/01/27 10:51:30;;;;;;;41.20;31.60;;;15.20;46.50;;;;;;6286282;28;20472;-66
2022/01/27 10:54:38;;;;;;;36.17;28.93;;;14.20;47.30;;;;;;6283096;28;20481;-68
2022/01/27 10:57:44;;;;;;;38.47;28.07;;;13.20;50.30;;;;;;6282446;28;20470;-69
2022/01/27 11:00:47;;;;;;;48.40;28.83;;;12.10;51.60;;;;;;6279628;28;20474;-68
2022/01/27 11:03:51;;;;;;;37.00;29.00;;;11.70;53.50;;;;;;6277699;28;20520;-67
2022/01/27 11:06:59;;;;;;;40.17;29.50;;;11.10;55.00;;;;;;6277396;28;20466;-67
2022/01/27 11:10:04;;;;;;;38.77;29.27;;;10.90;55.90;;;;;;6279220;28;20466;-67
2022/01/27 11:13:09;;;;;;;37.90;29.23;;;10.90;56.20;;;;;;6302240;28;20839;-67
2022/01/27 11:16:15;;;;;;;44.70;32.27;;;11.00;56.90;;;;;;6302249;28;20470;-66
2022/01/27 11:19:33;;;;;;;35.20;28.60;;;11.10;57.00;;;;;;6302165;28;20462;-66
2022/01/27 11:22:46;;;;;;;40.23;30.70;;;11.60;56.20;;;;;;6301649;28;20478;-66
2022/01/27 11:25:53;;;;;;;45.30;31.63;;;11.90;55.40;;;;;;6301706;28;20580;-66
2022/01/27 11:28:58;;;;;;;41.00;29.80;;;12.30;54.60;;;;;;6301184;28;20470;-67
2022/01/27 11:32:27;;;;;;;38.03;31.00;;;13.00;53.50;;;;;;6301989;28;20482;-66
2022/01/27 11:35:31;;;;;;;38.00;29.60;;;11.80;54.40;;;;;;6301930;28;20784;-66
2022/01/27 11:38:36;;;;;;;49.10;32.80;;;11.90;54.50;;;;;;6301481;28;20896;-66
2022/01/27 11:41:44;;;;;;;43.50;31.30;;;11.60;55.00;;;;;;6304305;28;20477;-68
2022/01/27 11:44:48;;;;;;;50.10;32.57;;;11.40;55.30;;;;;;6298028;28;20803;-68
2022/01/27 11:48:15;;;;;;;39.93;30.30;;;11.10;56.40;;;;;;6298896;28;20446;-68
2022/01/27 11:51:18;;;;;;;35.50;29.10;;;10.60;57.30;;;;;;6301265;28;20454;-67
2022/01/27 11:54:27;;;;;;;46.40;31.80;;;10.30;58.00;;;;;;6278926;28;21352;-66
2022/01/27 11:57:45;;;;;;;41.30;30.53;;;10.00;58.70;;;;;;6276453;28;20470;-66
2022/01/27 12:01:07;;;;;;;45.00;30.73;;;9.60;60.80;;;;;;6286764;28;20481;-65
2022/01/27 12:04:17;;;;;;;40.67;31.20;;;9.30;62.40;;;;;;6275168;28;20462;-65
2022/01/27 12:07:20;;;;;;;42.00;30.37;;;9.10;63.40;;;;;;6276632;28;20794;-66
2022/01/27 12:10:47;;;;;;;61.50;34.60;;;9.00;63.90;;;;;;6290638;28;20467;-66
2022/01/27 12:14:01;;;;;;;46.73;32.70;;;8.90;64.50;;;;;;6301052;28;20477;-66
2022/01/27 12:17:26;;;;;;;44.63;31.43;;;8.80;65.30;;;;;;6289137;28;20465;-66
2022/01/27 12:20:44;;;;;;;40.07;31.80;;;8.50;66.30;;;;;;6297546;28;20465;-66
2022/01/27 12:24:17;;;;;;;47.50;31.80;;;8.40;67.10;;;;;;6299779;28;20473;-66
2022/01/27 12:27:23;;;;;;;44.93;30.40;;;8.30;68.20;;;;;;6300199;28;20465;-65
2022/01/27 12:30:59;;;;;;;42.87;30.13;;;8.20;68.80;;;;;;6299645;28;20515;-69
2022/01/27 12:34:02;;;;;;;41.00;30.43;;;8.20;69.50;;;;;;6299533;28;20868;-68
2022/01/27 12:37:07;;;;;;;44.27;29.10;;;8.00;69.80;;;;;;6299460;28;20465;-68
2022/01/27 12:40:17;;;;;;;45.83;30.07;;;7.80;71.30;;;;;;6290294;28;20797;-67
2022/01/27 12:43:22;;;;;;;46.93;30.60;;;7.60;71.80;;;;;;6299886;28;20484;-67
2022/01/27 12:46:26;;;;;;;48.20;30.87;;;7.30;72.90;;;;;;6299318;28;20469;-66
2022/01/27 12:49:43;;;;;;;49.60;30.80;;;7.20;74.00;;;;;;6299606;28;20470;-65
2022/01/27 12:52:48;;;;;;;55.43;32.10;;;7.20;74.80;;;;;;6288988;28;20485;-66
2022/01/27 12:55:51;;;;;;;46.77;32.27;;;7.00;75.60;;;;;;6275314;28;20478;-66
2022/01/27 12:58:56;;;;;;;42.33;29.33;;;7.00;76.50;;;;;;6274798;28;20474;-66
2022/01/27 13:02:00;;;;;;;44.63;29.90;;;7.00;77.90;;;;;;6274349;28;20492;-66
2022/01/27 13:05:05;;;;;;;44.00;29.87;;;7.00;78.00;;;;;;6274618;28;20989;-67
2022/01/27 13:08:10;;;;;;;47.23;31.13;;;7.00;78.60;;;;;;6274875;28;20477;-67
2022/01/27 13:11:14;;;;;;;48.53;31.40;;;6.90;78.60;;;;;;6286742;28;20508;-67
2022/01/27 13:14:18;;;;;;;45.67;32.50;;;6.80;78.70;;;;;;6299081;28;20897;-67
2022/01/27 13:17:31;;;;;;;46.57;32.40;;;6.80;79.30;;;;;;6299577;28;20472;-68
2022/01/27 13:20:38;;;;;;;53.83;33.53;;;6.80;79.40;;;;;;6298730;28;20560;-69
2022/01/27 13:23:46;;;;;;;44.70;31.50;;;6.60;79.90;;;;;;6299125;28;20469;-68
2022/01/27 13:26:50;;;;;;;53.70;33.13;;;6.50;81.00;;;;;;6300021;28;20551;-67
2022/01/27 13:33:14;;;;;;;45.10;28.80;;;6.40;81.80;;;;;;5176048;26;21540;-64
2022/01/27 13:36:20;;;;;;;39.43;29.57;;;6.30;82.40;;;;;;6240861;28;20471;-64
2022/01/27 13:39:36;;;;;;;43.67;30.90;;;6.30;83.10;;;;;;6255084;28;20475;-64
2022/01/27 13:42:57;;;;;;;48.93;31.83;;;6.30;83.70;;;;;;6249577;28;20645;-65
2022/01/27 13:46:00;;;;;;;48.60;32.20;;;6.30;83.80;;;;;;6254184;28;20497;-64
2022/01/27 13:49:10;;;;;;;47.43;30.20;;;6.30;83.90;;;;;;6253694;28;20546;-65
2022/01/27 13:52:16;;;;;;;41.47;29.80;;;6.10;84.60;;;;;;6253975;28;20467;-64
2022/01/27 13:55:21;;;;;;;43.00;30.43;;;6.00;85.30;;;;;;6253562;28;20837;-64
2022/01/27 13:58:26;;;;;;;180.00;42.30;;;5.90;85.70;;;;;;6253941;28;20815;-65
2022/01/27 14:01:32;;;;;;;46.30;30.77;;;6.00;86.30;;;;;;6253088;28;20816;-66
2022/01/27 14:04:45;;;;;;;50.20;31.20;;;6.00;86.20;;;;;;6254125;28;20473;-64
2022/01/27 14:07:52;;;;;;;46.87;29.40;;;6.00;86.50;;;;;;6248071;28;20486;-64
2022/01/27 14:10:56;;;;;;;45.53;29.43;;;6.00;86.70;;;;;;6253234;28;20483;-64
2022/01/27 14:14:00;;;;;;;45.33;31.13;;;6.10;86.50;;;;;;6253823;28;20486;-63
2022/01/27 14:17:04;;;;;;;47.30;30.53;;;6.10;86.20;;;;;;6252975;28;20923;-64
2022/01/27 14:20:14;;;;;;;46.60;30.60;;;6.00;87.30;;;;;;6253363;28;20478;-64
2022/01/27 14:23:19;;;;;;;47.80;30.43;;;6.10;86.80;;;;;;6253658;28;20466;-64
2022/01/27 14:26:27;;;;;;;43.40;28.90;;;5.90;86.60;;;;;;6253017;28;20471;-63
2022/01/27 14:29:30;;;;;;;43.00;30.23;;;5.80;87.50;;;;;;6253128;28;20664;-64
2022/01/27 14:32:33;;;;;;;45.90;29.07;;;5.70;87.70;;;;;;6252838;28;20487;-65
2022/01/27 14:35:38;;;;;;;46.20;30.70;;;5.70;87.70;;;;;;6252709;28;20824;-63
2022/01/27 14:38:42;;;;;;;45.57;30.63;;;5.70;88.40;;;;;;6252490;28;20606;-64
2022/01/27 14:41:45;;;;;;;45.40;30.10;;;5.60;88.50;;;;;;6252962;28;20467;-63
2022/01/27 14:44:48;;;;;;;52.03;30.27;;;5.60;88.70;;;;;;6252666;28;20471;-64
2022/01/27 14:47:55;;;;;;;48.93;29.93;;;5.60;89.10;;;;;;6252043;28;20478;-64
2022/01/27 14:51:00;;;;;;;47.73;30.13;;;5.60;90.00;;;;;;6249352;28;20494;-64
2022/01/27 14:54:03;;;;;;;51.37;29.00;;;5.50;89.30;;;;;;6252590;28;20505;-63
2022/01/27 14:57:10;;;;;;;46.13;31.10;;;5.50;89.70;;;;;;6252479;28;20458;-63
2022/01/27 15:00:15;;;;;;;43.03;28.93;;;5.50;90.00;;;;;;6252540;28;20435;-64
2022/01/27 15:03:19;;;;;;;49.40;29.47;;;5.40;90.00;;;;;;6252761;28;20489;-66
2022/01/27 15:06:25;;;;;;;49.63;32.23;;;5.30;90.20;;;;;;6248224;28;20459;-66
2022/01/27 15:09:28;;;;;;;46.13;30.00;;;5.30;90.30;;;;;;6243874;28;20503;-67
2022/01/27 15:12:32;;;;;;;40.60;28.40;;;5.30;90.60;;;;;;6229927;28;20486;-66
2022/01/27 15:19:02;;;;;;;46.57;30.33;;;5.10;90.90;;;;;;6226623;28;20479;-67
2022/01/27 15:22:06;;;;;;;48.70;33.80;;;5.10;90.90;;;;;;6226613;28;20495;-66
2022/01/27 15:25:11;;;;;;;42.03;27.70;;;5.10;91.10;;;;;;6225865;28;20473;-67
2022/01/27 15:28:14;;;;;;;48.60;28.17;;;5.00;91.20;;;;;;6227446;28;20471;-68
2022/01/27 15:31:17;;;;;;;45.47;30.17;;;4.90;91.20;;;;;;6227011;28;20482;-66
2022/01/27 15:34:21;;;;;;;46.23;28.10;;;4.90;91.40;;;;;;6227400;28;20526;-67
2022/01/27 15:37:26;;;;;;;39.77;27.27;;;4.80;91.70;;;;;;6227045;28;20815;-67
2022/01/27 15:40:32;;;;;;;47.03;28.13;;;4.70;91.80;;;;;;6243230;28;20475;-67
2022/01/27 15:43:35;;;;;;;39.20;27.23;;;4.70;91.80;;;;;;6252861;28;20478;-66
2022/01/27 15:46:39;;;;;;;42.27;26.80;;;4.70;91.90;;;;;;6252829;28;20475;-67
2022/01/27 15:49:42;;;;;;;44.00;27.83;;;4.70;91.80;;;;;;6251760;28;20529;-66
2022/01/27 15:52:47;;;;;;;52.07;30.50;;;4.60;91.90;;;;;;6244711;28;20493;-66
2022/01/27 15:55:51;;;;;;;46.27;28.70;;;4.50;92.10;;;;;;6251246;28;20471;-65
2022/01/27 15:58:54;;;;;;;40.87;26.80;;;4.60;92.20;;;;;;6251405;28;20474;-65
2022/01/27 16:01:57;;;;;;;45.47;29.10;;;4.60;92.20;;;;;;6248981;28;20479;-66
2022/01/27 16:05:00;;;;;;;42.93;27.90;;;4.60;92.40;;;;;;6249953;28;20478;-66
2022/01/27 16:08:05;;;;;;;45.13;30.50;;;4.60;92.40;;;;;;6246015;28;20550;-66
2022/01/27 16:11:08;;;;;;;43.00;29.00;;;4.70;92.40;;;;;;6225293;28;20545;-65
2022/01/27 16:14:12;;;;;;;44.53;27.47;;;4.60;92.50;;;;;;6225538;28;20478;-65
2022/01/27 16:17:15;;;;;;;49.03;30.70;;;4.60;92.50;;;;;;6226255;28;20478;-64
2022/01/27 16:20:19;;;;;;;49.73;27.80;;;4.60;92.60;;;;;;6230898;28;20474;-65